createdAt,value
2018-04-08T16:07:04.013Z,19.50
2018-04-08T16:07:36.592Z,19.60
2018-04-08T16:08:09.143Z,19.50
2018-04-08T16:08:42.446Z,19.60
2018-04-08T16:09:14.997Z,19.60
2018-04-08T16:09:47.548Z,19.60
2018-04-08T16:10:20.074Z,19.70
2018-04-08T16:10:52.669Z,19.70
2018-04-08T16:11:25.223Z,19.70
2018-04-08T16:11:57.786Z,19.70
2018-04-08T16:12:30.346Z,19.70
2018-04-08T16:13:02.879Z,19.70
2018-04-08T16:13:35.411Z,19.70
2018-04-08T16:14:07.941Z,19.70
2018-04-08T16:14:40.476Z,19.70
2018-04-08T16:15:13.802Z,19.70
2018-04-08T16:15:46.736Z,19.70
2018-04-08T16:16:20.042Z,19.70
2018-04-08T16:16:52.587Z,19.70
2018-04-08T16:17:25.116Z,19.70
2018-04-08T16:17:57.650Z,19.70
2018-04-08T16:18:30.578Z,19.60
2018-04-08T16:19:03.268Z,19.60
2018-04-08T16:19:36.947Z,19.60
2018-04-08T16:20:09.632Z,19.60
2018-04-08T16:20:42.316Z,19.60
2018-04-08T16:21:14.846Z,19.60
2018-04-08T16:21:47.364Z,19.60
2018-04-08T16:22:19.874Z,19.60
2018-04-08T16:22:52.398Z,19.60
2018-04-08T16:23:25.211Z,19.60
2018-04-08T16:23:57.782Z,19.60
2018-04-08T16:24:31.101Z,19.60
2018-04-08T16:25:03.615Z,19.50
2018-04-08T16:25:36.146Z,19.50
2018-04-08T16:26:08.699Z,19.50
2018-04-08T16:26:41.276Z,19.60
2018-04-08T16:27:14.561Z,19.60
2018-04-08T16:27:47.861Z,19.50
2018-04-08T16:28:20.386Z,19.60
2018-04-08T16:28:52.922Z,19.50
2018-04-08T16:29:25.458Z,19.60
2018-04-08T16:29:57.979Z,19.60
2018-04-08T16:30:30.539Z,19.60
2018-04-08T16:31:03.106Z,19.60
2018-04-08T16:31:35.693Z,19.60
2018-04-08T16:32:09.061Z,19.60
2018-04-08T16:32:41.668Z,19.60
2018-04-08T16:33:14.233Z,19.60
2018-04-08T16:33:46.886Z,19.60
2018-04-08T16:34:19.460Z,19.60
2018-04-08T16:34:51.993Z,19.50
2018-04-08T16:35:25.683Z,19.40
2018-04-08T16:35:58.238Z,19.40
2018-04-08T16:36:30.934Z,19.40
2018-04-08T16:37:03.513Z,19.40
2018-04-08T16:37:36.033Z,19.40
2018-04-08T16:38:08.559Z,19.40
2018-04-08T16:38:41.325Z,19.40
2018-04-08T16:39:13.846Z,19.40
2018-04-08T16:39:46.386Z,19.40
2018-04-08T16:40:18.931Z,19.40
2018-04-08T16:40:51.462Z,19.40
2018-04-08T16:41:24.779Z,19.40
2018-04-08T16:41:57.340Z,19.40
2018-04-08T16:42:30.648Z,19.40
2018-04-08T16:43:04.072Z,19.40
2018-04-08T16:43:36.599Z,19.40
2018-04-08T16:44:09.205Z,19.40
2018-04-08T16:44:41.976Z,19.10
2018-04-08T16:45:14.503Z,19.40
2018-04-08T16:45:47.034Z,19.40
2018-04-08T16:46:19.566Z,19.40
2018-04-08T16:46:52.155Z,19.40
2018-04-08T16:47:26.549Z,19.40
2018-04-08T16:47:59.168Z,19.40
2018-04-08T16:48:31.794Z,19.40
2018-04-08T16:49:04.330Z,19.40
2018-04-08T16:49:36.850Z,19.40
2018-04-08T16:50:09.439Z,19.40
2018-04-08T16:50:42.108Z,19.40
2018-04-08T16:51:14.697Z,19.30
2018-04-08T16:51:47.216Z,19.30
2018-04-08T16:52:19.749Z,19.30
2018-04-08T16:52:52.297Z,19.30
2018-04-08T16:53:24.846Z,19.30
2018-04-08T16:53:57.551Z,19.30
2018-04-08T16:54:30.124Z,19.30
2018-04-08T16:55:02.797Z,19.30
2018-04-08T16:55:35.355Z,19.30
2018-04-08T16:56:07.908Z,19.30
2018-04-08T16:56:40.601Z,19.30
2018-04-08T16:57:13.226Z,19.30
2018-04-08T16:57:45.903Z,19.30
2018-04-08T16:58:18.475Z,19.30
2018-04-08T16:58:51.775Z,19.30
2018-04-08T16:59:24.527Z,19.30
2018-04-08T16:59:58.328Z,19.30
2018-04-08T17:00:31.763Z,19.30
2018-04-08T17:01:04.332Z,19.20
2018-04-08T17:01:36.901Z,19.30
2018-04-08T17:02:09.455Z,19.20
2018-04-08T17:02:41.986Z,19.20
2018-04-08T17:03:15.289Z,19.20
2018-04-08T17:03:47.861Z,19.20
2018-04-08T17:04:20.395Z,19.20
2018-04-08T17:04:52.922Z,19.20
2018-04-08T17:05:25.461Z,19.10
2018-04-08T17:05:59.165Z,19.10
2018-04-08T17:06:32.014Z,19.20
2018-04-08T17:07:06.277Z,19.20
2018-04-08T17:07:39.690Z,19.10
2018-04-08T17:08:12.368Z,19.20
2018-04-08T17:08:44.984Z,19.10
2018-04-08T17:09:17.534Z,19.20
2018-04-08T17:09:50.142Z,19.10
2018-04-08T17:10:26.444Z,19.10
2018-04-08T17:10:58.989Z,19.10
2018-04-08T17:11:31.782Z,19.10
2018-04-08T17:12:04.330Z,19.10
2018-04-08T17:12:36.847Z,19.10
2018-04-08T17:13:09.436Z,19.10
2018-04-08T17:13:42.233Z,19.00
2018-04-08T17:14:14.970Z,19.10
2018-04-08T17:14:47.517Z,19.10
2018-04-08T17:15:20.147Z,19.10
2018-04-08T17:15:53.882Z,19.10
2018-04-08T17:16:29.123Z,19.10
2018-04-08T17:17:01.798Z,19.10
2018-04-08T17:17:34.614Z,19.00
2018-04-08T17:18:07.224Z,19.00
2018-04-08T17:18:39.814Z,19.00
2018-04-08T17:19:12.438Z,19.00
2018-04-08T17:19:46.171Z,19.00
2018-04-08T17:20:18.785Z,18.90
2018-04-08T17:20:51.327Z,18.90
2018-04-08T17:21:23.961Z,18.90
2018-04-08T17:21:56.623Z,18.90
2018-04-08T17:22:29.372Z,19.00
2018-04-08T17:23:02.089Z,19.00
2018-04-08T17:23:34.683Z,18.90
2018-04-08T17:24:07.456Z,18.90
2018-04-08T17:24:40.133Z,18.90
2018-04-08T17:25:12.712Z,18.90
2018-04-08T17:25:46.300Z,18.90
2018-04-08T17:26:19.060Z,18.80
2018-04-08T17:26:52.590Z,18.80
2018-04-08T17:27:26.114Z,18.80
2018-04-08T17:27:59.524Z,18.80
2018-04-08T17:28:32.203Z,18.80
2018-04-08T17:29:04.958Z,18.80
2018-04-08T17:29:37.588Z,18.80
2018-04-08T17:30:11.031Z,18.80
2018-04-08T17:30:44.387Z,18.80
2018-04-08T17:31:16.990Z,18.70
2018-04-08T17:31:49.526Z,18.80
2018-04-08T17:32:22.080Z,18.80
2018-04-08T17:32:54.606Z,18.80
2018-04-08T17:33:28.061Z,18.80
2018-04-08T17:34:00.690Z,18.70
2018-04-08T17:34:34.120Z,18.70
2018-04-08T17:35:06.773Z,18.70
2018-04-08T17:35:40.484Z,18.70
2018-04-08T17:36:13.779Z,18.70
2018-04-08T17:36:46.413Z,18.70
2018-04-08T17:37:19.011Z,18.70
2018-04-08T17:37:52.505Z,18.70
2018-04-08T17:38:25.886Z,18.70
2018-04-08T17:38:58.503Z,18.70
2018-04-08T17:39:31.065Z,18.70
2018-04-08T17:40:03.651Z,18.70
2018-04-08T17:40:36.230Z,18.60
2018-04-08T17:41:09.592Z,18.60
2018-04-08T17:41:42.233Z,18.60
2018-04-08T17:42:14.826Z,18.60
2018-04-08T17:42:47.466Z,18.60
2018-04-08T17:43:20.047Z,18.60
2018-04-08T17:43:53.308Z,18.60
2018-04-08T17:44:25.893Z,18.60
2018-04-08T17:44:58.526Z,18.60
2018-04-08T17:45:31.060Z,18.60
2018-04-08T17:46:03.694Z,18.60
2018-04-08T17:46:36.266Z,18.60
2018-04-08T17:47:08.861Z,18.50
2018-04-08T17:47:42.252Z,18.50
2018-04-08T17:48:14.910Z,18.50
2018-04-08T17:48:47.597Z,18.50
2018-04-08T17:49:20.246Z,18.50
2018-04-08T17:49:52.915Z,18.50
2018-04-08T17:50:25.599Z,18.50
2018-04-08T17:50:58.264Z,18.50
2018-04-08T17:51:30.828Z,18.50
2018-04-08T17:52:03.384Z,18.50
2018-04-08T17:52:35.969Z,18.40
2018-04-08T17:53:08.514Z,18.50
2018-04-08T17:53:41.027Z,18.50
2018-04-08T17:54:13.557Z,18.50
2018-04-08T17:54:46.200Z,18.40
2018-04-08T17:55:18.725Z,18.40
2018-04-08T17:55:51.262Z,18.40
2018-04-08T17:56:24.566Z,18.40
2018-04-08T17:56:57.098Z,18.40
2018-04-08T17:57:29.649Z,18.40
2018-04-08T17:58:02.330Z,18.40
2018-04-08T17:58:34.862Z,18.40
2018-04-08T17:59:08.148Z,18.30
2018-04-08T17:59:40.673Z,18.30
2018-04-08T18:00:13.190Z,18.30
2018-04-08T18:00:45.812Z,18.30
2018-04-08T18:01:18.359Z,18.30
2018-04-08T18:01:50.891Z,18.30
2018-04-08T18:02:23.419Z,18.30
2018-04-08T18:02:57.797Z,18.20
2018-04-08T18:03:31.531Z,18.20
2018-04-08T18:04:04.178Z,18.20
2018-04-08T18:04:37.482Z,18.20
2018-04-08T18:05:10.061Z,18.20
2018-04-08T18:05:42.642Z,18.20
2018-04-08T18:06:16.045Z,18.20
2018-04-08T18:06:48.665Z,18.20
2018-04-08T18:07:21.424Z,18.10
2018-04-08T18:07:54.877Z,18.10
2018-04-08T18:08:28.382Z,18.10
2018-04-08T18:09:00.950Z,18.10
2018-04-08T18:09:33.531Z,18.10
2018-04-08T18:10:06.065Z,18.10
2018-04-08T18:10:39.603Z,18.10
2018-04-08T18:11:12.258Z,18.10
2018-04-08T18:11:45.623Z,18.10
2018-04-08T18:12:18.206Z,18.10
2018-04-08T18:12:50.755Z,18.10
2018-04-08T18:13:24.547Z,18.10
2018-04-08T18:13:57.154Z,18.10
2018-04-08T18:14:29.783Z,18.10
2018-04-08T18:15:02.416Z,18.10
2018-04-08T18:15:35.095Z,18.10
2018-04-08T18:16:07.785Z,18.10
2018-04-08T18:16:40.439Z,18.00
2018-04-08T18:17:13.079Z,18.00
2018-04-08T18:17:45.657Z,18.00
2018-04-08T18:18:19.011Z,18.00
2018-04-08T18:18:51.642Z,18.00
2018-04-08T18:19:24.211Z,18.00
2018-04-08T18:19:56.803Z,18.00
2018-04-08T18:20:30.223Z,18.00
2018-04-08T18:21:02.819Z,17.90
2018-04-08T18:21:35.349Z,18.00
2018-04-08T18:22:07.898Z,18.00
2018-04-08T18:22:40.444Z,18.00
2018-04-08T18:23:13.034Z,18.00
2018-04-08T18:23:45.630Z,17.90
2018-04-08T18:24:18.341Z,17.90
2018-04-08T18:24:51.186Z,17.90
2018-04-08T18:25:41.966Z,17.90
2018-04-08T18:26:14.575Z,17.90
2018-04-08T18:26:50.859Z,17.90
2018-04-08T18:27:24.051Z,17.80
2018-04-08T18:28:00.550Z,17.90
2018-04-08T18:28:33.335Z,17.90
2018-04-08T18:29:06.743Z,17.80
2018-04-08T18:29:40.886Z,17.90
2018-04-08T18:30:15.292Z,17.80
2018-04-08T18:30:53.809Z,17.80
2018-04-08T18:31:26.542Z,17.80
2018-04-08T18:32:03.104Z,17.80
2018-04-08T18:32:35.634Z,17.80
2018-04-08T18:33:12.718Z,17.80
2018-04-08T18:33:45.296Z,17.80
2018-04-08T18:34:18.747Z,17.80
2018-04-08T18:34:51.324Z,17.70
2018-04-08T18:35:23.956Z,17.70
2018-04-08T18:35:56.564Z,17.70
2018-04-08T18:36:31.554Z,17.70
2018-04-08T18:37:04.101Z,17.70
2018-04-08T18:37:36.731Z,17.70
2018-04-08T18:38:09.267Z,17.70
2018-04-08T18:38:44.900Z,17.70
2018-04-08T18:39:18.185Z,17.70
2018-04-08T18:39:52.156Z,17.70
2018-04-08T18:40:24.867Z,17.70
2018-04-08T18:40:58.875Z,17.60
2018-04-08T18:41:31.432Z,17.60
2018-04-08T18:42:06.805Z,17.60
2018-04-08T18:42:39.322Z,17.60
2018-04-08T18:43:13.332Z,17.60
2018-04-08T18:43:45.862Z,17.60
2018-04-08T18:44:19.177Z,17.60
2018-04-08T18:44:51.806Z,17.60
2018-04-08T18:45:26.684Z,17.60
2018-04-08T18:45:59.259Z,17.60
2018-04-08T18:46:31.791Z,17.60
2018-04-08T18:47:04.346Z,17.60
2018-04-08T18:47:36.921Z,17.50
2018-04-08T18:48:11.171Z,17.50
2018-04-08T18:48:43.704Z,17.50
2018-04-08T18:49:16.236Z,17.50
2018-04-08T18:49:51.673Z,17.50
2018-04-08T18:50:24.234Z,17.50
2018-04-08T18:50:56.798Z,17.50
2018-04-08T18:51:29.736Z,17.50
2018-04-08T18:52:02.311Z,17.50
2018-04-08T18:52:35.623Z,17.50
2018-04-08T18:53:08.185Z,17.40
2018-04-08T18:53:41.802Z,17.40
2018-04-08T18:54:15.507Z,17.40
2018-04-08T18:54:49.758Z,17.40
2018-04-08T18:55:30.079Z,17.40
2018-04-08T18:56:03.781Z,17.40
2018-04-08T18:56:37.119Z,17.40
2018-04-08T18:57:09.673Z,17.40
2018-04-08T18:57:42.229Z,17.40
2018-04-08T18:58:14.778Z,17.40
2018-04-08T18:58:47.354Z,17.40
2018-04-08T18:59:20.064Z,17.30
2018-04-08T18:59:52.674Z,17.30
2018-04-08T19:00:25.195Z,17.30
2018-04-08T19:00:57.813Z,17.30
2018-04-08T19:01:30.348Z,17.30
2018-04-08T19:02:02.923Z,17.30
2018-04-08T19:02:35.564Z,17.30
2018-04-08T19:03:08.155Z,17.30
2018-04-08T19:03:40.666Z,17.30
2018-04-08T19:04:13.198Z,17.30
2018-04-08T19:04:45.731Z,17.30
2018-04-08T19:05:18.322Z,17.30
2018-04-08T19:05:50.966Z,17.20
2018-04-08T19:06:24.429Z,17.20
2018-04-08T19:06:57.738Z,17.20
2018-04-08T19:07:30.507Z,17.20
2018-04-08T19:08:03.316Z,17.20
2018-04-08T19:08:36.058Z,17.20
2018-04-08T19:09:08.677Z,17.20
2018-04-08T19:09:41.215Z,17.20
2018-04-08T19:10:13.765Z,17.10
2018-04-08T19:10:46.318Z,17.10
2018-04-08T19:11:18.883Z,17.10
2018-04-08T19:11:51.471Z,17.10
2018-04-08T19:12:24.138Z,17.10
2018-04-08T19:12:56.718Z,17.10
2018-04-08T19:13:29.235Z,17.10
2018-04-08T19:14:01.812Z,17.10
2018-04-08T19:14:40.302Z,17.10
2018-04-08T19:15:18.704Z,17.00
2018-04-08T19:15:51.226Z,17.10
2018-04-08T19:16:24.520Z,17.00
2018-04-08T19:16:57.066Z,17.00
2018-04-08T19:17:35.355Z,17.00
2018-04-08T19:18:07.910Z,17.00
2018-04-08T19:18:40.507Z,17.00
2018-04-08T19:19:13.191Z,17.00
2018-04-08T19:19:45.777Z,16.90
2018-04-08T19:20:18.334Z,16.90
2018-04-08T19:20:54.919Z,16.90
2018-04-08T19:21:27.476Z,16.90
2018-04-08T19:22:00.013Z,16.90
2018-04-08T19:22:33.736Z,16.90
2018-04-08T19:23:06.291Z,16.90
2018-04-08T19:23:38.843Z,16.90
2018-04-08T19:24:11.419Z,16.90
2018-04-08T19:24:44.030Z,16.80
2018-04-08T19:25:16.673Z,16.80
2018-04-08T19:26:24.003Z,16.80
2018-04-08T19:26:56.526Z,16.80
2018-04-08T19:27:35.254Z,16.80
2018-04-08T19:28:07.820Z,16.80
2018-04-08T19:28:41.129Z,16.80
2018-04-08T19:29:13.673Z,16.80
2018-04-08T19:29:47.817Z,16.70
2018-04-08T19:30:21.290Z,16.70
2018-04-08T19:30:54.695Z,16.70
2018-04-08T19:31:28.752Z,16.70
2018-04-08T19:32:01.471Z,16.70
2018-04-08T19:32:44.675Z,16.70
2018-04-08T19:33:24.629Z,16.70
2018-04-08T19:33:59.278Z,16.60
2018-04-08T19:34:39.337Z,16.60
2018-04-08T19:35:12.096Z,16.60
2018-04-08T19:35:45.683Z,16.60
2018-04-08T19:36:19.086Z,16.60
2018-04-08T19:36:56.564Z,16.60
2018-04-08T19:37:29.171Z,16.60
2018-04-08T19:38:01.715Z,16.60
2018-04-08T19:38:34.242Z,16.60
2018-04-08T19:39:06.774Z,16.50
2018-04-08T19:39:40.908Z,16.50
2018-04-08T19:40:13.492Z,16.50
2018-04-08T19:40:46.142Z,16.50
2018-04-08T19:41:18.988Z,16.50
2018-04-08T19:41:52.333Z,16.50
2018-04-08T19:42:24.875Z,16.50
2018-04-08T19:42:57.524Z,16.50
2018-04-08T19:43:31.288Z,16.50
2018-04-08T19:44:03.863Z,16.50
2018-04-08T19:44:36.444Z,16.50
2018-04-08T19:45:08.996Z,16.50
2018-04-08T19:45:42.563Z,16.40
2018-04-08T19:46:15.990Z,16.40
2018-04-08T19:46:49.699Z,16.40
2018-04-08T19:47:22.225Z,16.40
2018-04-08T19:47:58.432Z,16.40
2018-04-08T19:48:31.053Z,16.40
2018-04-08T19:49:07.667Z,16.40
2018-04-08T19:49:40.768Z,16.40
2018-04-08T19:50:15.619Z,16.40
2018-04-08T19:50:48.159Z,16.40
2018-04-08T19:51:20.727Z,16.40
2018-04-08T19:51:53.275Z,16.30
2018-04-08T19:52:25.854Z,16.40
2018-04-08T19:52:58.949Z,16.30
2018-04-08T19:53:34.202Z,16.30
2018-04-08T19:54:08.780Z,16.30
2018-04-08T19:54:41.317Z,16.30
2018-04-08T19:55:13.977Z,16.30
2018-04-08T19:55:47.938Z,16.30
2018-04-08T19:56:21.702Z,16.20
2018-04-08T19:56:54.231Z,16.30
2018-04-08T19:57:27.304Z,16.30
2018-04-08T19:58:00.593Z,16.30
2018-04-08T19:58:35.466Z,16.30
2018-04-08T19:59:07.997Z,16.30
2018-04-08T19:59:40.576Z,16.20
2018-04-08T20:00:14.323Z,16.30
2018-04-08T20:00:46.846Z,16.20
2018-04-08T20:01:22.711Z,16.20
2018-04-08T20:01:56.037Z,16.20
2018-04-08T20:02:28.578Z,16.20
2018-04-08T20:03:03.677Z,16.20
2018-04-08T20:03:37.239Z,16.20
2018-04-08T20:04:09.755Z,16.20
2018-04-08T20:04:42.376Z,16.20
2018-04-08T20:05:14.917Z,16.20
2018-04-08T20:05:47.433Z,16.20
2018-04-08T20:06:21.685Z,16.10
2018-04-08T20:06:54.263Z,16.10
2018-04-08T20:07:26.782Z,16.10
2018-04-08T20:08:00.180Z,16.10
2018-04-08T20:08:32.735Z,16.10
2018-04-08T20:09:06.051Z,16.10
2018-04-08T20:09:38.594Z,16.10
2018-04-08T20:10:11.136Z,16.10
2018-04-08T20:10:44.031Z,16.00
2018-04-08T20:11:16.694Z,16.10
2018-04-08T20:11:49.302Z,16.10
2018-04-08T20:12:27.041Z,16.00
2018-04-08T20:12:59.748Z,16.00
2018-04-08T20:13:39.121Z,16.00
2018-04-08T20:14:12.924Z,16.00
2018-04-08T20:14:45.432Z,16.00
2018-04-08T20:15:17.967Z,16.00
2018-04-08T20:15:50.980Z,15.90
2018-04-08T20:16:23.518Z,15.90
2018-04-08T20:16:56.048Z,15.90
2018-04-08T20:17:28.616Z,15.90
2018-04-08T20:18:01.158Z,15.90
2018-04-08T20:18:33.706Z,15.90
2018-04-08T20:19:07.278Z,15.90
2018-04-08T20:19:41.224Z,15.90
2018-04-08T20:20:13.774Z,15.80
2018-04-08T20:20:47.940Z,15.80
2018-04-08T20:21:20.472Z,15.80
2018-04-08T20:21:53.032Z,15.80
2018-04-08T20:22:25.541Z,15.80
2018-04-08T20:22:58.841Z,15.80
2018-04-08T20:23:35.001Z,15.80
2018-04-08T20:24:08.060Z,15.80
2018-04-08T20:24:40.559Z,15.80
2018-04-08T20:25:13.120Z,15.80
2018-04-08T20:25:45.784Z,15.80
2018-04-08T20:26:18.323Z,15.80
2018-04-08T20:26:51.073Z,15.70
2018-04-08T20:27:24.398Z,15.70
2018-04-08T20:27:56.932Z,15.70
2018-04-08T20:28:29.640Z,15.70
2018-04-08T20:29:02.174Z,15.70
2018-04-08T20:29:34.693Z,15.70
2018-04-08T20:30:07.216Z,15.70
2018-04-08T20:30:39.786Z,15.70
2018-04-08T20:31:12.377Z,15.60
2018-04-08T20:31:44.904Z,15.60
2018-04-08T20:32:17.777Z,15.60
2018-04-08T20:32:50.306Z,15.60
2018-04-08T20:33:22.906Z,15.60
2018-04-08T20:33:55.433Z,15.60
2018-04-08T20:34:27.958Z,15.60
2018-04-08T20:35:00.494Z,15.60
2018-04-08T20:35:33.038Z,15.60
2018-04-08T20:36:05.969Z,15.60
2018-04-08T20:36:38.543Z,15.50
2018-04-08T20:37:11.311Z,15.50
2018-04-08T20:37:44.617Z,15.50
2018-04-08T20:38:17.145Z,15.40
2018-04-08T20:38:49.669Z,15.40
2018-04-08T20:39:22.207Z,15.30
2018-04-08T20:39:54.748Z,15.40
2018-04-08T20:40:27.292Z,15.30
2018-04-08T20:40:59.815Z,15.30
2018-04-08T20:41:32.383Z,15.30
2018-04-08T20:42:04.999Z,15.20
2018-04-08T20:42:37.529Z,15.20
2018-04-08T20:43:10.062Z,15.20
2018-04-08T20:43:42.697Z,15.10
2018-04-08T20:44:15.310Z,15.10
2018-04-08T20:44:48.015Z,15.10
2018-04-08T20:45:20.969Z,15.00
2018-04-08T20:45:53.550Z,15.00
2018-04-08T20:46:26.735Z,15.00
2018-04-08T20:47:03.609Z,15.00
2018-04-08T20:47:37.047Z,15.00
2018-04-08T20:48:10.632Z,15.00
2018-04-08T20:48:43.162Z,15.00
2018-04-08T20:49:15.734Z,14.90
2018-04-08T20:49:49.032Z,14.90
2018-04-08T20:50:22.743Z,14.80
2018-04-08T20:50:55.278Z,14.80
2018-04-08T20:51:27.931Z,14.80
2018-04-08T20:52:00.560Z,14.80
2018-04-08T20:52:33.081Z,14.80
2018-04-08T20:53:05.905Z,14.80
2018-04-08T20:53:38.480Z,14.80
2018-04-08T20:54:11.122Z,14.80
2018-04-08T20:54:43.673Z,14.80
2018-04-08T20:55:16.198Z,14.80
2018-04-08T20:55:48.784Z,14.80
2018-04-08T20:56:21.316Z,14.80
2018-04-08T20:56:53.944Z,14.80
2018-04-08T20:57:26.476Z,14.80
2018-04-08T20:57:59.044Z,14.80
2018-04-08T20:58:31.589Z,14.80
2018-04-08T20:59:04.119Z,14.80
2018-04-08T20:59:36.662Z,14.80
2018-04-08T21:00:09.206Z,14.80
2018-04-08T21:00:44.235Z,14.80
2018-04-08T21:01:16.788Z,14.80
2018-04-08T21:01:49.384Z,14.80
2018-04-08T21:02:21.925Z,14.80
2018-04-08T21:02:54.457Z,14.80
2018-04-08T21:03:27.178Z,14.80
2018-04-08T21:03:59.753Z,14.80
2018-04-08T21:04:32.306Z,14.80
2018-04-08T21:05:06.291Z,14.80
2018-04-08T21:05:39.834Z,14.80
2018-04-08T21:06:12.396Z,14.80
2018-04-08T21:06:44.931Z,14.80
2018-04-08T21:07:17.480Z,14.80
2018-04-08T21:07:50.012Z,14.80
2018-04-08T21:08:22.556Z,14.80
2018-04-08T21:08:55.176Z,14.80
2018-04-08T21:09:27.709Z,14.80
2018-04-08T21:10:00.306Z,14.80
2018-04-08T21:11:12.783Z,14.80
2018-04-08T21:11:45.732Z,14.80
2018-04-08T21:12:18.278Z,14.80
2018-04-08T21:12:51.801Z,14.80
2018-04-08T21:13:24.400Z,14.80
2018-04-08T21:13:57.024Z,14.80
2018-04-08T21:14:29.628Z,14.80
2018-04-08T21:15:02.937Z,14.80
2018-04-08T21:15:35.479Z,14.80
2018-04-08T21:16:08.335Z,14.80
2018-04-08T21:16:40.919Z,14.80
2018-04-08T21:17:13.451Z,14.80
2018-04-08T21:17:46.004Z,14.80
2018-04-08T21:18:18.559Z,14.80
2018-04-08T21:18:51.126Z,14.80
2018-04-08T21:19:23.664Z,14.70
2018-04-08T21:19:56.197Z,14.70
2018-04-08T21:20:28.758Z,14.70
2018-04-08T21:21:02.124Z,14.70
2018-04-08T21:21:34.634Z,14.70
2018-04-08T21:22:07.246Z,14.70
2018-04-08T21:22:39.779Z,14.70
2018-04-08T21:23:12.308Z,14.70
2018-04-08T21:23:44.864Z,14.70
2018-04-08T21:24:17.547Z,14.70
2018-04-08T21:24:50.834Z,14.60
2018-04-08T21:25:25.657Z,14.70
2018-04-08T21:25:58.887Z,14.60
2018-04-08T21:26:31.595Z,14.70
2018-04-08T21:27:04.598Z,14.60
2018-04-08T21:27:37.482Z,14.60
2018-04-08T21:28:10.074Z,14.60
2018-04-08T21:28:42.600Z,14.60
2018-04-08T21:29:15.119Z,14.60
2018-04-08T21:29:47.690Z,14.60
2018-04-08T21:30:20.231Z,14.60
2018-04-08T21:30:52.817Z,14.60
2018-04-08T21:31:25.617Z,14.60
2018-04-08T21:31:58.175Z,14.60
2018-04-08T21:32:30.698Z,14.60
2018-04-08T21:33:03.210Z,14.60
2018-04-08T21:33:36.015Z,14.60
2018-04-08T21:34:08.540Z,14.60
2018-04-08T21:34:41.091Z,14.60
2018-04-08T21:35:13.622Z,14.60
2018-04-08T21:35:46.156Z,14.60
2018-04-08T21:36:18.683Z,14.60
2018-04-08T21:36:51.227Z,14.60
2018-04-08T21:37:33.224Z,14.60
2018-04-08T21:38:13.964Z,14.60
2018-04-08T21:38:54.800Z,14.60
2018-04-08T21:39:27.493Z,14.60
2018-04-08T21:40:01.609Z,14.60
2018-04-08T21:40:34.134Z,14.60
2018-04-08T21:41:06.825Z,14.60
2018-04-08T21:41:39.366Z,14.60
2018-04-08T21:42:11.894Z,14.60
2018-04-08T21:42:44.453Z,14.60
2018-04-08T21:43:18.014Z,14.50
2018-04-08T21:43:50.599Z,14.60
2018-04-08T21:44:23.170Z,14.50
2018-04-08T21:44:56.418Z,14.50
2018-04-08T21:45:29.702Z,14.50
2018-04-08T21:46:02.266Z,14.50
2018-04-08T21:46:35.583Z,14.50
2018-04-08T21:47:08.145Z,14.50
2018-04-08T21:47:40.727Z,14.50
2018-04-08T21:48:13.268Z,14.50
2018-04-08T21:48:46.092Z,14.50
2018-04-08T21:49:18.789Z,14.50
2018-04-08T21:49:51.341Z,14.50
2018-04-08T21:50:24.639Z,14.50
2018-04-08T21:50:57.160Z,14.50
2018-04-08T21:51:31.277Z,14.50
2018-04-08T21:52:03.796Z,14.50
2018-04-08T21:52:36.326Z,14.50
2018-04-08T21:53:08.892Z,14.50
2018-04-08T21:53:41.418Z,14.50
2018-04-08T21:54:14.059Z,14.50
2018-04-08T21:54:46.625Z,14.50
2018-04-08T21:55:19.162Z,14.50
2018-04-08T21:55:51.684Z,14.50
2018-04-08T21:56:24.233Z,14.40
2018-04-08T21:56:57.052Z,14.40
2018-04-08T21:57:29.617Z,14.40
2018-04-08T21:58:02.155Z,14.40
2018-04-08T21:58:34.702Z,14.40
2018-04-08T21:59:07.281Z,14.40
2018-04-08T21:59:39.807Z,14.40
2018-04-08T22:00:12.343Z,14.40
2018-04-08T22:00:44.874Z,14.40
2018-04-08T22:01:17.384Z,14.40
2018-04-08T22:01:49.902Z,14.40
2018-04-08T22:02:23.334Z,14.40
2018-04-08T22:02:55.873Z,14.30
2018-04-08T22:03:28.404Z,14.40
2018-04-08T22:04:00.966Z,14.30
2018-04-08T22:04:33.485Z,14.30
2018-04-08T22:05:06.124Z,14.30
2018-04-08T22:05:38.664Z,14.30
2018-04-08T22:06:11.208Z,14.40
2018-04-08T22:06:43.761Z,14.30
2018-04-08T22:07:16.293Z,14.30
2018-04-08T22:07:48.813Z,14.30
2018-04-08T22:08:21.412Z,14.30
2018-04-08T22:08:53.944Z,14.30
2018-04-08T22:09:26.541Z,14.30
2018-04-08T22:09:59.068Z,14.20
2018-04-08T22:10:31.605Z,14.20
2018-04-08T22:11:04.152Z,14.20
2018-04-08T22:11:38.383Z,14.20
2018-04-08T22:12:10.946Z,14.20
2018-04-08T22:12:45.003Z,14.20
2018-04-08T22:13:17.705Z,14.20
2018-04-08T22:13:52.389Z,14.20
2018-04-08T22:14:24.916Z,14.20
2018-04-08T22:14:57.449Z,14.20
2018-04-08T22:15:30.070Z,14.20
2018-04-08T22:16:02.918Z,14.20
2018-04-08T22:16:35.933Z,14.20
2018-04-08T22:17:08.754Z,14.20
2018-04-08T22:17:42.039Z,14.20
2018-04-08T22:18:14.745Z,14.20
2018-04-08T22:18:49.390Z,14.10
2018-04-08T22:19:21.913Z,14.10
2018-04-08T22:19:55.134Z,14.10
2018-04-08T22:20:27.653Z,14.10
2018-04-08T22:21:00.219Z,14.10
2018-04-08T22:21:32.749Z,14.10
2018-04-08T22:22:05.330Z,14.10
2018-04-08T22:22:38.964Z,14.10
2018-04-08T22:23:19.735Z,14.10
2018-04-08T22:23:57.303Z,14.10
2018-04-08T22:24:30.709Z,14.10
2018-04-08T22:25:03.625Z,14.10
2018-04-08T22:25:36.386Z,14.10
2018-04-08T22:26:08.946Z,14.10
2018-04-08T22:26:59.617Z,14.10
2018-04-08T22:27:35.132Z,14.10
2018-04-08T22:28:08.278Z,14.00
2018-04-08T22:28:40.809Z,14.00
2018-04-08T22:29:13.388Z,14.00
2018-04-08T22:29:46.233Z,14.00
2018-04-08T22:30:20.280Z,14.00
2018-04-08T22:30:56.079Z,14.00
2018-04-08T22:31:35.908Z,14.00
2018-04-08T22:32:09.403Z,14.00
2018-04-08T22:32:42.424Z,13.90
2018-04-08T22:33:15.052Z,14.00
